createdAt,value
2018-11-14T00:02:11.768Z,15.40
2018-11-14T00:04:40.238Z,19.17
2018-11-14T00:07:08.674Z,17.63
2018-11-14T00:09:37.176Z,18.17
2018-11-14T00:12:06.107Z,20.57
2018-11-14T00:14:34.547Z,21.37
2018-11-14T00:17:03.300Z,20.23
2018-11-14T00:19:31.782Z,19.90
2018-11-14T00:22:00.226Z,21.35
2018-11-14T00:24:28.789Z,21.43
2018-11-14T00:26:57.224Z,21.07
2018-11-14T00:29:25.688Z,21.27
2018-11-14T00:31:54.175Z,20.95
2018-11-14T00:34:22.637Z,21.00
2018-11-14T00:36:51.107Z,22.73
2018-11-14T00:39:19.651Z,21.20
2018-11-14T00:41:48.119Z,24.50
2018-11-14T00:44:16.580Z,22.43
2018-11-14T00:46:45.044Z,23.00
2018-11-14T00:49:13.486Z,24.43
2018-11-14T00:51:41.959Z,21.57
2018-11-14T00:54:10.419Z,23.53
2018-11-14T00:56:38.870Z,24.90
2018-11-14T00:59:07.330Z,23.47
2018-11-14T01:01:36.092Z,22.47
2018-11-14T01:04:04.739Z,21.83
2018-11-14T01:06:33.173Z,23.20
2018-11-14T01:09:01.649Z,22.27
2018-11-14T01:11:30.264Z,21.80
2018-11-14T01:13:58.727Z,24.73
2018-11-14T01:16:27.177Z,21.40
2018-11-14T01:18:55.943Z,24.13
2018-11-14T01:21:24.614Z,24.17
2018-11-14T01:23:53.244Z,23.33
2018-11-14T01:26:21.711Z,23.70
2018-11-14T01:28:50.174Z,23.27
2018-11-14T01:31:18.818Z,25.57
2018-11-14T01:33:47.532Z,22.33
2018-11-14T01:36:16.042Z,23.70
2018-11-14T01:38:44.539Z,23.75
2018-11-14T01:41:12.987Z,21.60
2018-11-14T01:43:41.471Z,22.87
2018-11-14T01:46:10.280Z,22.37
2018-11-14T01:48:38.779Z,26.50
2018-11-14T01:51:07.544Z,24.20
2018-11-14T01:53:36.003Z,24.20
2018-11-14T01:56:04.748Z,25.50
2018-11-14T01:58:33.351Z,23.47
2018-11-14T02:01:01.812Z,25.87
2018-11-14T02:03:30.374Z,24.70
2018-11-14T02:05:59.168Z,25.27
2018-11-14T02:08:27.703Z,23.20
2018-11-14T02:10:56.175Z,24.80
2018-11-14T02:13:24.655Z,25.73
2018-11-14T02:15:53.180Z,26.47
2018-11-14T02:18:21.673Z,25.63
2018-11-14T02:20:50.166Z,28.47
2018-11-14T02:23:18.623Z,28.70
2018-11-14T02:25:47.070Z,26.15
2018-11-14T02:28:15.578Z,25.17
2018-11-14T02:30:44.085Z,26.52
2018-11-14T02:33:12.609Z,26.77
2018-11-14T02:35:41.109Z,25.80
2018-11-14T02:38:09.587Z,25.67
2018-11-14T02:40:38.095Z,23.60
2018-11-14T02:43:06.919Z,22.93
2018-11-14T02:45:35.399Z,23.47
2018-11-14T02:48:03.931Z,22.30
2018-11-14T02:50:32.519Z,23.57
2018-11-14T02:53:01.232Z,23.63
2018-11-14T02:55:29.688Z,24.47
2018-11-14T02:57:58.152Z,24.50
2018-11-14T03:00:26.663Z,24.40
2018-11-14T03:02:55.424Z,23.30
2018-11-14T03:05:23.928Z,25.83
2018-11-14T03:07:52.420Z,24.63
2018-11-14T03:10:21.953Z,26.00
2018-11-14T03:12:50.479Z,24.92
2018-11-14T03:15:22.724Z,27.80
2018-11-14T03:17:51.268Z,27.22
2018-11-14T03:20:21.153Z,27.27
2018-11-14T03:22:49.679Z,28.77
2018-11-14T03:25:18.191Z,29.40
2018-11-14T03:27:46.663Z,26.10
2018-11-14T03:30:16.500Z,23.80
2018-11-14T03:32:45.483Z,24.52
2018-11-14T03:35:14.596Z,26.53
2018-11-14T03:37:43.078Z,27.25
2018-11-14T03:40:14.334Z,28.10
2018-11-14T03:42:42.872Z,26.20
2018-11-14T03:45:12.735Z,26.50
2018-11-14T03:47:41.923Z,26.90
2018-11-14T03:50:11.032Z,26.93
2018-11-14T03:52:40.581Z,27.63
2018-11-14T03:55:09.068Z,28.70
2018-11-14T03:57:37.599Z,28.83
2018-11-14T04:00:09.105Z,30.80
2018-11-14T04:02:37.632Z,34.95
2018-11-14T04:05:06.674Z,35.33
2018-11-14T04:07:35.146Z,33.70
2018-11-14T04:10:03.658Z,33.50
2018-11-14T04:12:32.121Z,31.48
2018-11-14T04:15:00.579Z,31.80
2018-11-14T04:17:29.377Z,30.97
2018-11-14T04:19:58.446Z,35.53
2018-11-14T04:22:26.953Z,36.87
2018-11-14T04:24:55.448Z,39.60
2018-11-14T04:27:23.935Z,34.47
2018-11-14T04:29:52.560Z,33.98
2018-11-14T04:32:21.020Z,36.65
2018-11-14T04:34:49.548Z,34.63
2018-11-14T04:37:18.071Z,37.80
2018-11-14T04:39:47.055Z,37.07
2018-11-14T04:42:46.193Z,36.93
2018-11-14T04:45:18.307Z,33.53
2018-11-14T04:47:46.926Z,32.75
2018-11-14T04:50:17.719Z,32.03
2018-11-14T04:52:47.292Z,33.00
2018-11-14T04:55:17.163Z,30.00
2018-11-14T04:57:45.954Z,30.63
2018-11-14T05:00:15.496Z,39.47
2018-11-14T05:02:44.682Z,36.47
2018-11-14T05:05:15.755Z,35.47
2018-11-14T05:07:44.250Z,44.60
2018-11-14T05:10:17.091Z,40.60
2018-11-14T05:12:45.890Z,39.98
2018-11-14T05:15:15.809Z,37.97
2018-11-14T05:17:45.019Z,39.10
2018-11-14T05:20:14.608Z,40.10
2018-11-14T05:22:43.614Z,36.30
2018-11-14T05:25:12.162Z,53.57
2018-11-14T05:27:40.987Z,43.53
2018-11-14T05:30:11.624Z,43.30
2018-11-14T05:32:40.124Z,39.08
2018-11-14T05:35:10.092Z,41.87
2018-11-14T05:37:39.112Z,38.03
2018-11-14T05:40:10.782Z,37.50
2018-11-14T05:42:39.878Z,46.27
2018-11-14T05:45:10.745Z,39.78
2018-11-14T05:47:39.408Z,47.40
2018-11-14T05:50:12.090Z,31.82
2018-11-14T05:52:40.887Z,33.00
2018-11-14T05:55:10.382Z,34.47
2018-11-14T05:57:39.247Z,37.90
2018-11-14T06:00:12.884Z,37.03
2018-11-14T06:02:41.353Z,40.83
2018-11-14T06:05:10.363Z,35.80
2018-11-14T06:07:39.470Z,36.10
2018-11-14T06:10:09.860Z,30.27
2018-11-14T06:12:38.374Z,40.50
2018-11-14T06:15:10.189Z,32.78
2018-11-14T06:17:38.710Z,31.80
2018-11-14T06:20:08.807Z,42.08
2018-11-14T06:22:37.313Z,33.70
2018-11-14T06:25:17.356Z,41.40
2018-11-14T06:27:45.844Z,34.80
2018-11-14T06:30:14.334Z,38.83
2018-11-14T06:32:42.872Z,36.13
2018-11-14T06:35:11.384Z,38.60
2018-11-14T06:37:39.908Z,38.23
2018-11-14T06:40:10.459Z,34.00
2018-11-14T06:42:39.739Z,34.43
2018-11-14T06:45:11.193Z,39.95
2018-11-14T06:47:40.194Z,38.33
2018-11-14T06:50:09.867Z,34.83
2018-11-14T06:52:38.782Z,32.40
2018-11-14T06:55:09.239Z,38.28
2018-11-14T06:57:38.062Z,37.70
2018-11-14T07:00:10.335Z,34.97
2018-11-14T07:02:38.847Z,40.90
2018-11-14T07:05:10.194Z,36.87
2018-11-14T07:07:38.704Z,36.37
2018-11-14T07:10:09.074Z,35.83
2018-11-14T07:12:37.604Z,36.90
2018-11-14T07:15:09.101Z,38.28
2018-11-14T07:17:37.759Z,36.87
2018-11-14T07:20:09.390Z,42.13
2018-11-14T07:22:37.829Z,38.90
2018-11-14T07:25:06.767Z,42.37
2018-11-14T07:27:35.225Z,42.60
2018-11-14T07:30:04.190Z,42.90
2018-11-14T07:32:33.341Z,42.60
2018-11-14T07:35:01.805Z,40.90
2018-11-14T07:37:30.334Z,47.60
2018-11-14T07:39:58.871Z,46.30
2018-11-14T07:42:27.581Z,43.37
2018-11-14T07:44:56.112Z,40.25
2018-11-14T07:47:24.617Z,37.77
2018-11-14T07:49:53.484Z,44.20
2018-11-14T07:52:21.945Z,43.17
2018-11-14T07:54:50.463Z,36.10
2018-11-14T07:57:18.928Z,38.30
2018-11-14T07:59:47.517Z,40.10
2018-11-14T08:02:16.261Z,43.40
2018-11-14T08:04:44.719Z,41.40
2018-11-14T08:07:13.206Z,44.87
2018-11-14T08:09:41.719Z,49.37
2018-11-14T08:12:10.224Z,40.70
2018-11-14T08:14:38.739Z,43.80
2018-11-14T08:17:07.224Z,48.93
2018-11-14T08:19:36.052Z,50.77
2018-11-14T08:22:04.874Z,57.60
2018-11-14T08:24:33.368Z,87.00
2018-11-14T08:27:01.892Z,108.40
2018-11-14T08:29:30.593Z,102.90
2018-11-14T08:31:59.100Z,107.50
2018-11-14T08:34:27.573Z,93.90
2018-11-14T08:36:56.112Z,91.50
2018-11-14T08:39:24.865Z,77.73
2018-11-14T08:41:53.285Z,82.93
2018-11-14T08:44:21.851Z,71.40
2018-11-14T08:46:50.326Z,64.50
2018-11-14T08:49:18.840Z,56.40
2018-11-14T08:51:47.296Z,49.37
2018-11-14T08:54:16.039Z,46.33
2018-11-14T08:56:44.547Z,40.60
2018-11-14T08:59:13.255Z,42.33
2018-11-14T09:01:41.748Z,43.07
2018-11-14T09:04:10.286Z,40.40
2018-11-14T09:06:38.759Z,39.93
2018-11-14T09:09:09.314Z,42.13
2018-11-14T09:11:37.761Z,39.77
2018-11-14T09:14:07.062Z,43.83
2018-11-14T09:16:35.948Z,39.80
2018-11-14T09:19:04.720Z,40.30
2018-11-14T09:21:33.236Z,41.30
2018-11-14T09:24:01.837Z,41.43
2018-11-14T09:26:30.378Z,42.15
2018-11-14T09:28:58.884Z,40.10
2018-11-14T09:31:27.367Z,42.08
2018-11-14T09:33:55.840Z,41.90
2018-11-14T09:36:24.512Z,43.30
2018-11-14T09:38:52.948Z,40.50
2018-11-14T09:41:21.488Z,40.17
2018-11-14T09:43:50.015Z,39.80
2018-11-14T09:46:18.915Z,39.10
2018-11-14T09:48:47.408Z,41.60
2018-11-14T09:51:16.100Z,40.37
2018-11-14T09:53:44.610Z,41.20
2018-11-14T09:56:13.197Z,37.50
2018-11-14T09:58:41.692Z,39.00
2018-11-14T10:01:10.240Z,36.30
2018-11-14T10:03:38.758Z,38.47
2018-11-14T10:06:07.292Z,36.40
2018-11-14T10:08:36.043Z,36.20
2018-11-14T10:11:04.512Z,32.50
2018-11-14T10:13:33.128Z,31.37
2018-11-14T10:16:01.622Z,33.30
2018-11-14T10:18:30.184Z,33.07
2018-11-14T10:20:58.669Z,32.13
2018-11-14T10:23:27.371Z,33.40
2018-11-14T10:25:56.071Z,32.93
2018-11-14T10:28:24.530Z,32.93
2018-11-14T10:30:53.032Z,31.93
2018-11-14T10:33:21.489Z,31.85
2018-11-14T10:35:49.972Z,34.90
2018-11-14T10:38:18.437Z,29.07
2018-11-14T10:40:47.140Z,29.70
2018-11-14T10:43:15.644Z,28.60
2018-11-14T10:45:44.104Z,29.10
2018-11-14T10:48:12.782Z,28.30
2018-11-14T10:50:41.374Z,28.23
2018-11-14T10:53:09.860Z,26.97
2018-11-14T10:55:38.318Z,19.50
2018-11-14T10:58:06.860Z,20.37
2018-11-14T11:00:40.534Z,17.00
2018-11-14T11:03:17.100Z,18.00
2018-11-14T11:05:51.023Z,19.07
2018-11-14T11:08:24.736Z,18.33
2018-11-14T11:10:58.504Z,18.87
2018-11-14T11:13:32.351Z,17.30
2018-11-14T11:16:06.081Z,17.00
2018-11-14T11:18:35.215Z,14.33
2018-11-14T11:21:03.704Z,15.53
2018-11-14T11:23:32.281Z,15.40
2018-11-14T11:26:00.727Z,14.20
2018-11-14T11:28:29.354Z,16.40
2018-11-14T11:30:57.885Z,17.20
2018-11-14T11:33:26.350Z,15.00
2018-11-14T11:35:54.858Z,18.52
2018-11-14T11:38:23.460Z,17.37
2018-11-14T11:40:51.908Z,14.83
2018-11-14T11:43:20.594Z,13.83
2018-11-14T11:45:49.086Z,15.10
2018-11-14T11:48:17.599Z,15.58
2018-11-14T11:50:46.287Z,15.38
2018-11-14T11:53:14.783Z,15.10
2018-11-14T11:55:43.839Z,13.78
2018-11-14T11:58:12.324Z,14.57
2018-11-14T12:00:41.291Z,14.17
2018-11-14T12:03:09.667Z,12.87
2018-11-14T12:05:38.148Z,13.00
2018-11-14T12:08:06.667Z,12.93
2018-11-14T12:10:35.168Z,12.28
2018-11-14T12:13:03.704Z,11.77
2018-11-14T12:15:32.170Z,13.67
2018-11-14T12:18:01.229Z,12.70
2018-11-14T12:20:29.696Z,12.23
2018-11-14T12:22:58.206Z,12.47
2018-11-14T12:25:26.684Z,12.60
2018-11-14T12:27:55.235Z,12.90
2018-11-14T12:30:24.063Z,13.17
2018-11-14T12:32:52.765Z,12.13
2018-11-14T12:35:21.340Z,15.43
2018-11-14T12:37:49.725Z,13.47
2018-11-14T12:40:18.586Z,13.93
2018-11-14T12:42:47.091Z,14.80
2018-11-14T12:45:16.535Z,13.40
2018-11-14T12:47:45.061Z,13.07
2018-11-14T12:50:14.527Z,14.97
2018-11-14T12:52:43.706Z,14.57
2018-11-14T12:55:16.605Z,16.23
2018-11-14T12:57:45.327Z,13.90
2018-11-14T13:00:16.347Z,14.40
2018-11-14T13:02:45.156Z,14.07
2018-11-14T13:05:14.636Z,16.10
2018-11-14T13:07:43.951Z,13.80
2018-11-14T13:10:13.749Z,13.57
2018-11-14T13:12:43.796Z,12.37
2018-11-14T13:15:13.708Z,13.23
2018-11-14T13:17:43.189Z,13.23
2018-11-14T13:20:14.298Z,12.87
2018-11-14T13:22:43.143Z,11.80
2018-11-14T13:25:12.664Z,12.07
2018-11-14T13:27:42.344Z,12.30
2018-11-14T13:30:14.882Z,13.37
2018-11-14T13:32:44.048Z,12.73
2018-11-14T13:35:14.041Z,12.23
2018-11-14T13:37:43.575Z,12.17
2018-11-14T13:40:12.476Z,13.90
2018-11-14T13:42:41.448Z,13.87
2018-11-14T13:45:11.520Z,12.97
2018-11-14T13:47:40.495Z,12.77
2018-11-14T13:50:12.156Z,13.20
2018-11-14T13:52:40.950Z,13.03
2018-11-14T13:55:11.760Z,13.30
2018-11-14T13:57:40.995Z,14.33
2018-11-14T14:00:11.115Z,14.77
2018-11-14T14:02:39.596Z,15.53
2018-11-14T14:05:10.420Z,14.63
2018-11-14T14:07:39.047Z,14.33
2018-11-14T14:10:08.737Z,15.60
2018-11-14T14:12:37.536Z,15.10
2018-11-14T14:15:08.657Z,14.70
2018-11-14T14:17:37.148Z,15.47
2018-11-14T14:20:07.241Z,14.67
2018-11-14T14:22:35.667Z,14.50
2018-11-14T14:25:04.439Z,15.20
2018-11-14T14:27:32.925Z,15.68
2018-11-14T14:30:01.446Z,14.87
2018-11-14T14:32:29.934Z,16.03
2018-11-14T14:34:58.439Z,14.90
2018-11-14T14:37:26.882Z,15.50
2018-11-14T14:39:55.396Z,15.13
2018-11-14T14:42:23.891Z,16.20
2018-11-14T14:44:52.903Z,15.10
2018-11-14T14:47:21.685Z,13.67
2018-11-14T14:49:50.677Z,16.03
2018-11-14T14:52:19.324Z,15.57
2018-11-14T14:54:47.835Z,14.80
2018-11-14T14:57:16.453Z,16.73
2018-11-14T14:59:44.948Z,16.60
2018-11-14T15:02:13.541Z,16.10
2018-11-14T15:04:42.997Z,17.20
2018-11-14T15:07:11.500Z,18.37
2018-11-14T15:09:40.020Z,17.20
2018-11-14T15:12:08.628Z,16.23
2018-11-14T15:14:37.104Z,18.37
2018-11-14T15:17:05.892Z,19.30
2018-11-14T15:19:34.362Z,18.93
2018-11-14T15:22:02.863Z,19.02
2018-11-14T15:24:31.355Z,17.87
2018-11-14T15:26:59.890Z,20.23
2018-11-14T15:29:28.350Z,18.43
2018-11-14T15:31:56.833Z,19.90
2018-11-14T15:34:25.305Z,19.23
2018-11-14T15:36:53.775Z,22.00
2018-11-14T15:39:22.235Z,20.07
2018-11-14T15:41:50.754Z,20.57
2018-11-14T15:44:19.274Z,21.40
2018-11-14T15:46:47.749Z,21.50
2018-11-14T15:49:16.252Z,21.70
2018-11-14T15:51:44.903Z,25.60
2018-11-14T15:54:13.312Z,25.60
2018-11-14T15:56:41.796Z,23.53
2018-11-14T15:59:10.283Z,23.20
2018-11-14T16:01:38.772Z,26.67
2018-11-14T16:04:07.379Z,25.30
2018-11-14T16:06:35.976Z,25.43
2018-11-14T16:09:06.567Z,26.50
2018-11-14T16:11:35.076Z,25.10
2018-11-14T16:14:04.563Z,27.02
2018-11-14T16:16:33.134Z,28.43
2018-11-14T16:19:01.922Z,33.63
2018-11-14T16:21:30.380Z,28.77
2018-11-14T16:23:58.847Z,25.93
2018-11-14T16:26:27.557Z,29.93
2018-11-14T16:28:56.020Z,30.30
2018-11-14T16:31:24.806Z,32.00
2018-11-14T16:33:53.296Z,31.80
2018-11-14T16:36:21.852Z,32.77
2018-11-14T16:38:50.514Z,33.00
2018-11-14T16:41:18.974Z,32.28
2018-11-14T16:43:47.516Z,34.55
2018-11-14T16:46:16.063Z,35.40
2018-11-14T16:48:44.882Z,34.55
2018-11-14T16:51:13.524Z,35.50
2018-11-14T16:53:42.068Z,39.07
2018-11-14T16:56:10.611Z,39.77
2018-11-14T16:58:39.448Z,42.33
2018-11-14T17:01:07.883Z,46.67
2018-11-14T17:03:37.171Z,46.80
2018-11-14T17:06:05.739Z,47.17
2018-11-14T17:08:34.261Z,48.10
2018-11-14T17:11:02.825Z,46.13
2018-11-14T17:13:31.416Z,44.80
2018-11-14T17:15:59.914Z,75.27
2018-11-14T17:18:28.643Z,44.67
2018-11-14T17:20:57.136Z,41.73
2018-11-14T17:23:25.633Z,46.10
2018-11-14T17:25:54.150Z,47.47
2018-11-14T17:28:22.675Z,50.70
2018-11-14T17:30:51.185Z,45.63
2018-11-14T17:33:19.951Z,46.80
2018-11-14T17:35:48.490Z,45.03
2018-11-14T17:38:16.913Z,45.53
2018-11-14T17:40:45.406Z,43.27
2018-11-14T17:43:13.853Z,44.37
2018-11-14T17:45:42.484Z,42.70
2018-11-14T17:48:11.101Z,40.83
2018-11-14T17:50:39.785Z,38.97
2018-11-14T17:53:08.312Z,40.78
2018-11-14T17:55:37.078Z,39.87
2018-11-14T17:58:05.536Z,40.27
2018-11-14T18:00:34.032Z,39.53
2018-11-14T18:03:02.583Z,39.30
2018-11-14T18:05:32.028Z,36.58
2018-11-14T18:08:00.529Z,39.73
2018-11-14T18:10:30.448Z,35.43
2018-11-14T18:13:00.004Z,38.10
2018-11-14T18:15:28.561Z,39.87
2018-11-14T18:17:57.516Z,42.00
2018-11-14T18:20:27.550Z,36.03
2018-11-14T18:22:56.581Z,38.17
2018-11-14T18:25:25.411Z,37.90
2018-11-14T18:27:53.904Z,39.10
2018-11-14T18:30:28.887Z,37.57
2018-11-14T18:32:58.394Z,45.37
2018-11-14T18:35:27.716Z,46.10
2018-11-14T18:37:57.154Z,39.73
2018-11-14T18:40:27.184Z,41.90
2018-11-14T18:42:55.934Z,42.67
2018-11-14T18:45:27.776Z,42.77
2018-11-14T18:47:57.253Z,39.67
2018-11-14T18:50:26.116Z,45.30
2018-11-14T18:52:54.732Z,40.37
2018-11-14T18:55:24.911Z,43.10
2018-11-14T18:57:53.730Z,43.23
2018-11-14T19:00:26.619Z,45.07
2018-11-14T19:02:55.141Z,38.43
2018-11-14T19:05:23.610Z,42.60
2018-11-14T19:07:52.136Z,43.00
2018-11-14T19:10:22.409Z,44.03
2018-11-14T19:13:21.569Z,40.00
2018-11-14T19:15:50.084Z,41.93
2018-11-14T19:18:18.581Z,44.93
2018-11-14T19:20:47.056Z,43.90
2018-11-14T19:23:15.693Z,43.30
2018-11-14T19:25:44.156Z,43.30
2018-11-14T19:28:12.691Z,42.23
2018-11-14T19:30:41.277Z,40.50
2018-11-14T19:33:09.807Z,39.50
2018-11-14T19:35:38.355Z,40.25
2018-11-14T19:38:06.978Z,43.80
2018-11-14T19:40:36.996Z,41.02
2018-11-14T19:43:07.547Z,39.70
2018-11-14T19:45:37.434Z,41.20
2018-11-14T19:48:06.461Z,39.20
2018-11-14T19:50:35.181Z,40.10
2018-11-14T19:53:04.387Z,44.08
2018-11-14T19:55:33.736Z,42.30
2018-11-14T19:58:03.649Z,39.10
2018-11-14T20:00:33.443Z,41.13
2018-11-14T20:03:01.964Z,36.42
2018-11-14T20:05:30.465Z,36.30
2018-11-14T20:07:58.998Z,37.93
2018-11-14T20:10:30.194Z,36.03
2018-11-14T20:12:58.630Z,34.87
2018-11-14T20:15:32.746Z,33.20
2018-11-14T20:18:01.283Z,32.20
2018-11-14T20:20:31.345Z,30.65
2018-11-14T20:22:59.862Z,34.03
2018-11-14T20:25:28.400Z,29.03
2018-11-14T20:27:57.129Z,31.43
2018-11-14T20:30:27.129Z,31.47
2018-11-14T20:32:57.034Z,30.30
2018-11-14T20:35:26.547Z,31.60
2018-11-14T20:37:55.115Z,31.10
2018-11-14T20:40:24.141Z,30.80
2018-11-14T20:42:53.423Z,28.40
2018-11-14T20:45:26.331Z,31.40
2018-11-14T20:47:54.903Z,24.73
2018-11-14T20:50:24.538Z,25.40
2018-11-14T20:52:55.095Z,26.17
2018-11-14T20:55:23.611Z,25.83
2018-11-14T20:57:52.138Z,26.12
2018-11-14T21:00:22.867Z,26.40
2018-11-14T21:02:51.815Z,27.73
2018-11-14T21:05:20.633Z,25.87
2018-11-14T21:07:49.147Z,24.87
2018-11-14T21:10:19.213Z,25.27
2018-11-14T21:12:48.772Z,25.88
2018-11-14T21:15:20.415Z,25.50
2018-11-14T21:17:49.947Z,23.53
2018-11-14T21:20:18.482Z,27.07
2018-11-14T21:22:47.141Z,24.00
2018-11-14T21:25:16.922Z,25.73
2018-11-14T21:27:46.547Z,24.37
2018-11-14T21:30:16.784Z,26.47
2018-11-14T21:32:45.625Z,22.60
2018-11-14T21:35:18.576Z,21.70
2018-11-14T21:37:48.671Z,24.30
2018-11-14T21:40:17.199Z,20.00
2018-11-14T21:42:45.700Z,22.70
2018-11-14T21:45:16.816Z,23.60
2018-11-14T21:47:50.346Z,24.07
2018-11-14T21:50:20.092Z,23.57
2018-11-14T21:52:49.091Z,22.07
2018-11-14T21:55:18.395Z,20.20
2018-11-14T21:57:46.888Z,21.17
2018-11-14T22:00:19.792Z,22.22
2018-11-14T22:02:49.683Z,19.50
2018-11-14T22:05:18.299Z,19.53
2018-11-14T22:07:46.978Z,20.37
2018-11-14T22:10:17.999Z,21.68
2018-11-14T22:12:46.983Z,20.80
2018-11-14T22:15:16.512Z,18.85
2018-11-14T22:17:44.972Z,21.03
2018-11-14T22:20:14.646Z,20.60
2018-11-14T22:22:44.728Z,19.20
2018-11-14T22:25:14.570Z,21.90
2018-11-14T22:27:43.114Z,20.80
2018-11-14T22:30:17.561Z,22.67
2018-11-14T22:32:46.323Z,20.83
2018-11-14T22:35:16.184Z,18.93
2018-11-14T22:37:44.675Z,19.33
2018-11-14T22:40:15.012Z,23.22
2018-11-14T22:42:44.283Z,22.60
2018-11-14T22:45:15.243Z,23.20
2018-11-14T22:47:44.279Z,21.97
2018-11-14T22:50:14.374Z,21.07
2018-11-14T22:52:43.772Z,23.20
2018-11-14T22:55:13.355Z,19.53
2018-11-14T22:57:42.980Z,19.13
2018-11-14T23:00:21.141Z,19.80
2018-11-14T23:02:51.408Z,18.27
2018-11-14T23:05:20.370Z,18.10
2018-11-14T23:07:50.170Z,18.80
2018-11-14T23:10:20.000Z,19.40
2018-11-14T23:12:49.046Z,20.30
2018-11-14T23:15:18.132Z,19.57
2018-11-14T23:17:46.890Z,19.37
2018-11-14T23:20:16.487Z,21.77
2018-11-14T23:22:45.819Z,21.37
2018-11-14T23:25:14.844Z,22.80
2018-11-14T23:27:44.616Z,24.57
2018-11-14T23:30:14.362Z,22.97
2018-11-14T23:32:43.959Z,23.57
2018-11-14T23:35:16.656Z,25.57
2018-11-14T23:37:47.275Z,27.03
2018-11-14T23:40:15.765Z,28.67
2018-11-14T23:42:44.240Z,29.10
2018-11-14T23:45:14.171Z,29.10
2018-11-14T23:47:43.683Z,31.03
2018-11-14T23:50:16.257Z,33.57
2018-11-14T23:52:46.076Z,58.27
2018-11-14T23:55:15.365Z,78.02
2018-11-14T23:57:43.966Z,82.57
